Time;durP1;ratioP1;P1;durP2;ratioP2;P2;SDS_P1;SDS_P2;PMS_P1;PMS_P2;Temp;Humidity;BMP_temperature;BMP_pressure;BME280_temperature;BME280_humidity;BME280_pressure;Samples;Min_cycle;Max_cycle;Signal;HPM_P1;HPM_P2
2021/07/25 00:01:41;;;;;;;9.55;5.90;;;;;;;28.22;48.66;100138.97;5070074;28;20059;-78
2021/07/25 00:04:26;;;;;;;9.02;5.47;;;;;;;28.22;48.73;100138.97;5068055;28;20047;-77
2021/07/25 00:07:11;;;;;;;8.02;6.13;;;;;;;28.23;49.44;100140.53;5082273;28;20040;-78
2021/07/25 00:09:56;;;;;;;9.90;5.55;;;;;;;28.21;48.99;100131.81;5067802;28;20055;-78
2021/07/25 00:12:41;;;;;;;9.60;6.18;;;;;;;28.22;49.21;100133.38;5067331;28;20060;-77
2021/07/25 00:15:26;;;;;;;13.80;7.60;;;;;;;28.22;49.04;100136.97;5071793;28;20059;-77
2021/07/25 00:18:11;;;;;;;7.28;6.20;;;;;;;28.22;49.11;100138.97;5068416;28;20044;-79
2021/07/25 00:20:55;;;;;;;9.75;6.72;;;;;;;28.23;49.41;100141.34;5066044;28;20071;-76
2021/07/25 00:23:45;;;;;;;11.63;7.30;;;;;;;28.21;49.65;100137.41;5069682;28;20401;-78
2021/07/25 00:26:37;;;;;;;10.27;7.57;;;;;;;28.19;49.40;100137.84;5066273;28;20036;-77
2021/07/25 00:29:22;;;;;;;12.35;6.80;;;;;;;28.19;49.63;100139.88;5063626;28;20402;-77
2021/07/25 00:32:10;;;;;;;12.40;7.85;;;;;;;28.12;49.47;100134.50;5071990;28;20524;-79
2021/07/25 00:34:56;;;;;;;10.88;6.38;;;;;;;28.05;49.13;100139.06;5067361;28;20047;-79
2021/07/25 00:37:44;;;;;;;7.75;6.20;;;;;;;28.03;49.78;100138.75;5065679;28;20410;-76
2021/07/25 00:40:42;;;;;;;7.82;6.22;;;;;;;28.06;49.78;100137.84;5069836;28;20044;-79
2021/07/25 00:43:28;;;;;;;9.02;5.93;;;;;;;28.05;49.89;100130.69;5068166;28;20115;-78
2021/07/25 00:46:14;;;;;;;10.60;6.22;;;;;;;28.06;49.97;100143.44;5064673;28;20047;-79
2021/07/25 00:49:00;;;;;;;10.00;7.28;;;;;;;28.05;49.60;100130.69;5071245;28;20052;-76
2021/07/25 00:51:46;;;;;;;11.63;7.70;;;;;;;28.02;50.13;100120.41;5067541;28;20048;-77
2021/07/25 00:54:30;;;;;;;11.50;8.35;;;;;;;28.01;49.84;100118.06;5067903;28;20043;-78
2021/07/25 00:57:16;;;;;;;9.50;7.05;;;;;;;27.94;50.23;100113.47;5069411;28;20055;-78
2021/07/25 01:00:02;;;;;;;12.93;7.95;;;;;;;27.96;50.37;100111.00;5071821;28;20051;-77
2021/07/25 01:03:01;;;;;;;11.90;8.85;;;;;;;28.02;49.94;100108.44;5064401;28;20063;-77
2021/07/25 01:06:04;;;;;;;12.68;8.73;;;;;;;27.94;48.78;100107.88;5067527;28;20043;-79
2021/07/25 01:09:00;;;;;;;9.30;7.72;;;;;;;27.82;48.84;100103.09;5067665;28;20048;-79
2021/07/25 01:11:53;;;;;;;11.15;6.60;;;;;;;27.74;48.58;100098.94;5068851;28;20052;-80
2021/07/25 01:14:39;;;;;;;10.65;7.10;;;;;;;27.72;48.86;100104.22;5064869;28;20123;-78
2021/07/25 01:17:36;;;;;;;8.75;6.72;;;;;;;27.74;48.77;100098.94;5063844;28;20048;-78
2021/07/25 01:20:23;;;;;;;8.93;6.18;;;;;;;27.74;48.98;100098.94;5069171;28;20056;-79
2021/07/25 01:23:08;;;;;;;11.63;6.60;;;;;;;27.71;48.50;100102.66;5067815;28;20047;-78
2021/07/25 01:25:57;;;;;;;9.40;6.18;;;;;;;27.66;48.12;100097.63;5065445;28;20055;-78
2021/07/25 01:28:46;;;;;;;9.13;6.20;;;;;;;27.64;47.89;100094.47;5070034;28;20059;-77
2021/07/25 01:31:37;;;;;;;10.18;7.05;;;;;;;27.63;47.83;100109.69;5065836;28;20425;-78
2021/07/25 01:34:22;;;;;;;13.10;6.38;;;;;;;27.62;47.52;100103.31;5063754;28;20047;-78
2021/07/25 01:37:07;;;;;;;11.73;6.18;;;;;;;27.60;47.40;100104.97;5070407;28;20044;-76
2021/07/25 01:39:52;;;;;;;10.05;6.53;;;;;;;27.59;47.38;100097.81;5066989;28;20118;-78
2021/07/25 01:42:37;;;;;;;9.23;6.05;;;;;;;27.56;47.30;100098.72;5066452;28;20131;-77
2021/07/25 01:45:22;;;;;;;10.93;6.15;;;;;;;27.56;46.83;100096.72;5069050;28;20678;-76
2021/07/25 01:48:07;;;;;;;7.82;5.50;;;;;;;27.54;46.73;100098.38;5065247;28;20036;-77
2021/07/25 01:50:53;;;;;;;8.07;6.30;;;;;;;27.52;47.10;100098.84;5067263;28;20421;-77
2021/07/25 01:53:38;;;;;;;9.27;6.07;;;;;;;27.58;46.88;100102.63;5080272;28;20422;-77
2021/07/25 01:56:22;;;;;;;10.13;6.18;;;;;;;27.58;47.42;100102.63;5068422;28;20051;-78
2021/07/25 01:59:07;;;;;;;8.40;5.88;;;;;;;27.49;46.94;100096.09;5066143;28;20040;-79
2021/07/25 02:01:52;;;;;;;10.57;5.68;;;;;;;27.45;47.38;100098.22;5068327;28;20048;-78
2021/07/25 02:04:36;;;;;;;16.00;6.55;;;;;;;27.40;47.50;100090.41;5065142;28;20052;-78
2021/07/25 02:07:21;;;;;;;12.60;6.38;;;;;;;27.37;47.33;100096.91;5071701;28;20410;-79
2021/07/25 02:10:07;;;;;;;7.80;5.72;;;;;;;27.35;47.63;100088.16;5067006;28;20663;-78
2021/07/25 02:12:51;;;;;;;10.60;6.15;;;;;;;27.43;47.09;100081.91;5067679;28;20051;-77
2021/07/25 02:15:36;;;;;;;9.60;6.35;;;;;;;27.34;47.41;100081.78;5065365;28;20124;-81
2021/07/25 02:18:20;;;;;;;9.93;6.40;;;;;;;27.27;47.33;100087.63;5067924;28;20052;-78
2021/07/25 02:21:05;;;;;;;8.32;5.32;;;;;;;27.21;47.38;100078.22;5067762;28;20048;-77
2021/07/25 02:23:50;;;;;;;7.25;5.60;;;;;;;27.20;47.91;100079.44;5063713;28;20048;-77
2021/07/25 02:26:35;;;;;;;9.73;6.55;;;;;;;27.19;47.78;100084.22;5067887;28;20044;-78
2021/07/25 02:29:20;;;;;;;13.93;5.90;;;;;;;27.18;48.01;100085.47;5073916;28;20040;-76
2021/07/25 02:32:05;;;;;;;9.73;5.57;;;;;;;27.16;48.05;100087.94;5072840;28;20052;-76
2021/07/25 02:34:50;;;;;;;7.38;5.15;;;;;;;27.18;48.07;100095.84;5066881;28;20047;-78
2021/07/25 02:37:35;;;;;;;10.60;5.72;;;;;;;27.16;48.56;100085.13;5075118;28;20040;-79
2021/07/25 02:40:21;;;;;;;13.23;6.32;;;;;;;27.14;48.88;100079.19;5071163;28;20043;-78
2021/07/25 02:43:06;;;;;;;8.18;6.13;;;;;;;27.11;48.92;100080.09;5076722;28;20055;-79
2021/07/25 02:45:50;;;;;;;11.98;6.07;;;;;;;27.13;48.89;100079.63;5071304;28;20043;-79
2021/07/25 02:48:35;;;;;;;9.27;7.15;;;;;;;27.11;49.18;100080.09;5071513;28;20094;-78
2021/07/25 02:51:19;;;;;;;14.27;6.20;;;;;;;27.10;49.17;100086.13;5068810;28;20524;-79
2021/07/25 02:54:04;;;;;;;8.05;6.25;;;;;;;27.07;49.07;100082.19;5072161;28;20055;-79
2021/07/25 02:56:48;;;;;;;;;;;;;;;27.08;49.20;100088.56;5073263;28;20039;-76
2021/07/25 02:59:33;;;;;;;10.77;6.18;;;;;;;27.03;49.25;100078.72;5071440;28;20389;-79
2021/07/25 03:02:17;;;;;;;8.35;5.82;;;;;;;27.01;49.30;100081.19;5072909;28;20051;-78
2021/07/25 03:05:02;;;;;;;;;;;;;;;27.02;49.13;100088.31;5071176;28;20055;-77
2021/07/25 03:07:47;;;;;;;11.02;6.05;;;;;;;26.96;48.91;100078.94;5073478;28;19917;-79
2021/07/25 03:10:31;;;;;;;;;;;;;;;26.95;49.17;100080.16;5078135;28;20115;-77
2021/07/25 03:13:15;;;;;;;11.82;6.55;;;;;;;26.92;49.00;100081.03;5076612;28;19912;-78
2021/07/25 03:16:04;;;;;;;10.45;6.10;;;;;;;26.88;49.38;100079.56;5075602;28;20044;-79
2021/07/25 03:18:50;;;;;;;8.73;6.13;;;;;;;26.87;49.11;100086.41;5078626;28;20043;-78
2021/07/25 03:21:35;;;;;;;10.35;5.88;;;;;;;26.87;49.41;100078.78;5077644;28;20044;-75
2021/07/25 03:24:20;;;;;;;9.00;5.72;;;;;;;26.83;49.96;100087.22;5074580;28;20417;-77
2021/07/25 03:27:05;;;;;;;;;;;;;;;26.83;50.17;100089.25;5079077;28;20660;-79
2021/07/25 03:29:49;;;;;;;10.52;5.70;;;;;;;26.75;50.37;100082.31;5075916;28;19917;-77
2021/07/25 03:32:34;;;;;;;7.82;5.85;;;;;;;26.71;50.73;100090.00;5076427;28;20414;-76
2021/07/25 03:35:19;;;;;;;9.20;5.93;;;;;;;26.73;50.99;100090.31;5075900;28;20047;-77
2021/07/25 03:38:04;;;;;;;11.90;6.03;;;;;;;26.73;51.04;100085.53;5077104;28;20516;-78
2021/07/25 03:40:49;;;;;;;9.05;5.93;;;;;;;26.72;51.27;100085.94;5074036;28;20048;-78
2021/07/25 03:43:34;;;;;;;10.45;6.05;;;;;;;26.73;51.23;100098.69;5076352;28;20040;-78
2021/07/25 03:46:18;;;;;;;7.90;5.55;;;;;;;26.71;51.41;100084.41;5077031;28;20063;-77
2021/07/25 03:49:03;;;;;;;7.85;6.18;;;;;;;26.71;51.94;100081.63;5075797;28;20047;-77
2021/07/25 03:51:48;;;;;;;9.07;5.63;;;;;;;26.66;52.65;100080.16;5072147;28;20052;-77
2021/07/25 03:54:36;;;;;;;11.05;5.90;;;;;;;26.65;53.10;100069.44;5073867;28;20047;-76
2021/07/25 03:57:20;;;;;;;12.13;6.35;;;;;;;26.66;53.53;100065.41;5073844;28;20043;-78
2021/07/25 04:00:06;;;;;;;9.18;5.10;;;;;;;26.67;53.81;100069.75;5073944;28;20039;-76
2021/07/25 04:02:51;;;;;;;11.13;5.93;;;;;;;26.63;54.23;100071.88;5072445;28;20047;-77
2021/07/25 04:05:36;;;;;;;14.43;7.53;;;;;;;26.62;54.80;100067.50;5074718;28;20512;-78
2021/07/25 04:08:20;;;;;;;10.13;5.53;;;;;;;26.67;54.72;100075.34;5073076;28;20048;-77
2021/07/25 04:11:06;;;;;;;8.80;6.15;;;;;;;26.65;55.02;100080.59;5079072;28;20544;-77
2021/07/25 04:13:50;;;;;;;10.65;6.28;;;;;;;26.63;55.06;100066.28;5076357;28;20051;-75
2021/07/25 04:16:35;;;;;;;11.98;6.53;;;;;;;26.65;55.58;100072.22;5071236;28;20146;-77
2021/07/25 04:19:19;;;;;;;7.97;5.78;;;;;;;26.63;55.66;100089.38;5077877;28;20674;-77
2021/07/25 04:22:04;;;;;;;8.77;5.68;;;;;;;26.67;55.73;100092.84;5076833;28;20043;-77
2021/07/25 04:24:49;;;;;;;8.07;6.47;;;;;;;26.65;55.71;100092.53;5071810;28;20521;-76
2021/07/25 04:27:34;;;;;;;14.13;6.40;;;;;;;26.68;55.79;100094.44;5076690;28;20048;-76
2021/07/25 04:30:19;;;;;;;9.02;6.00;;;;;;;26.68;55.62;100090.84;5075551;28;20047;-79
2021/07/25 04:33:05;;;;;;;18.40;5.85;;;;;;;26.67;55.98;100089.28;5074454;28;20047;-77
2021/07/25 04:35:50;;;;;;;11.18;6.80;;;;;;;26.63;56.05;100091.38;5075918;28;20051;-77
2021/07/25 04:38:35;;;;;;;8.43;6.22;;;;;;;26.65;56.34;100098.09;5075185;28;20047;-76
2021/07/25 04:41:27;;;;;;;25.60;8.77;;;;;;;26.66;56.28;100104.47;5072816;28;20059;-77
2021/07/25 04:44:30;;;;;;;33.30;10.98;;;;;;;26.63;56.00;100099.75;5073612;28;20059;-77
2021/07/25 04:47:19;;;;;;;26.85;9.48;;;;;;;26.69;55.94;100109.16;5071976;28;20127;-76
2021/07/25 04:50:06;;;;;;;16.77;6.47;;;;;;;26.70;55.63;100107.94;5073436;28;20071;-76
2021/07/25 04:52:55;;;;;;;11.68;7.18;;;;;;;26.70;55.53;100105.16;5075535;28;20048;-77
2021/07/25 04:55:40;;;;;;;12.70;6.40;;;;;;;26.70;55.67;100105.16;5074045;28;20043;-78
2021/07/25 04:58:46;;;;;;;10.18;5.93;;;;;;;26.75;55.52;100115.78;5071566;28;20103;-77
2021/07/25 05:01:36;;;;;;;15.13;5.63;;;;;;;26.71;55.29;100113.09;5070404;28;20047;-76
2021/07/25 05:04:22;;;;;;;11.57;6.57;;;;;;;26.72;55.01;100114.63;5094706;22;20536;-67
2021/07/25 05:07:11;;;;;;;8.05;5.10;;;;;;;26.72;55.19;100116.63;5058115;28;20044;-67
2021/07/25 05:09:56;;;;;;;8.05;6.03;;;;;;;26.71;55.13;100121.47;5053420;28;20048;-68
2021/07/25 05:12:48;;;;;;;8.60;4.53;;;;;;;26.72;55.00;100125.78;5053643;28;20052;-68
2021/07/25 05:15:38;;;;;;;9.48;5.78;;;;;;;26.72;54.93;100125.00;5052142;28;20048;-67
2021/07/25 05:18:37;;;;;;;7.95;5.32;;;;;;;26.74;54.89;100128.16;5054242;28;20394;-68
2021/07/25 05:21:25;;;;;;;8.77;5.15;;;;;;;26.73;54.80;100118.22;5046744;28;20048;-67
2021/07/25 05:24:11;;;;;;;13.63;5.53;;;;;;;26.78;54.39;100117.69;5053595;28;20048;-68
2021/07/25 05:27:01;;;;;;;12.95;5.65;;;;;;;26.76;54.47;100112.56;5053917;28;20067;-68
2021/07/25 05:29:51;;;;;;;9.48;5.00;;;;;;;26.78;54.65;100120.47;5050491;28;20044;-67
2021/07/25 05:32:35;;;;;;;9.23;5.57;;;;;;;26.77;54.60;100118.91;5053075;28;20064;-67
2021/07/25 05:35:21;;;;;;;7.18;4.82;;;;;;;26.81;54.20;100116.81;5052601;28;20044;-68
2021/07/25 05:38:05;;;;;;;11.77;5.05;;;;;;;26.82;53.83;100110.00;5052296;28;20059;-68
2021/07/25 05:40:50;;;;;;;9.95;5.53;;;;;;;26.83;53.76;100117.13;5055588;28;20044;-68
2021/07/25 05:43:35;;;;;;;11.85;5.20;;;;;;;26.87;53.46;100108.72;5051955;28;20059;-68
2021/07/25 05:46:20;;;;;;;11.93;5.53;;;;;;;26.91;53.46;100114.97;5050722;28;20104;-68
2021/07/25 05:49:05;;;;;;;10.88;5.68;;;;;;;26.91;53.48;100112.97;5055479;28;20513;-67
2021/07/25 05:51:50;;;;;;;7.97;5.78;;;;;;;26.92;53.22;100111.72;5052470;28;20528;-67
2021/07/25 05:54:36;;;;;;;9.52;5.10;;;;;;;26.95;52.88;100110.88;5051117;28;20052;-67
2021/07/25 05:57:20;;;;;;;9.30;5.10;;;;;;;26.99;52.82;100108.75;5054043;28;20044;-68
2021/07/25 06:00:05;;;;;;;13.68;6.25;;;;;;;26.98;52.68;100109.97;5054425;28;20560;-67
2021/07/25 06:03:00;;;;;;;11.23;5.28;;;;;;;27.02;52.51;100116.22;5049681;28;20068;-68
2021/07/25 06:05:45;;;;;;;10.88;5.50;;;;;;;27.02;52.25;100116.22;5050887;28;20063;-67
2021/07/25 06:08:30;;;;;;;9.70;6.40;;;;;;;27.06;52.25;100124.53;5053009;28;20433;-68
2021/07/25 06:11:24;;;;;;;10.15;5.65;;;;;;;27.11;51.42;100127.56;5051412;28;20056;-67
2021/07/25 06:14:09;;;;;;;7.05;5.32;;;;;;;27.11;51.64;100121.97;5052674;28;20039;-67
2021/07/25 06:16:54;;;;;;;8.27;5.18;;;;;;;27.15;51.71;100122.66;5054175;28;20044;-68
2021/07/25 06:19:39;;;;;;;6.88;5.40;;;;;;;27.19;51.05;100114.94;5055325;28;20413;-68
2021/07/25 06:22:24;;;;;;;7.72;4.88;;;;;;;27.21;50.85;100112.50;5056293;28;20047;-67
2021/07/25 06:25:10;;;;;;;8.38;5.30;;;;;;;27.26;50.58;100108.38;5050360;28;20529;-67
2021/07/25 06:27:58;;;;;;;11.25;5.35;;;;;;;27.32;50.45;100111.41;5050813;28;20073;-67
2021/07/25 06:30:42;;;;;;;7.57;4.85;;;;;;;27.34;50.45;100111.72;5054642;28;20777;-68
2021/07/25 06:33:29;;;;;;;8.45;4.93;;;;;;;27.38;50.49;100110.41;5053811;28;20233;-67
2021/07/25 06:36:14;;;;;;;7.32;5.28;;;;;;;27.42;49.87;100116.69;5052216;28;20044;-67
2021/07/25 06:38:59;;;;;;;7.78;5.32;;;;;;;27.48;49.44;100119.72;5055288;28;20337;-68
2021/07/25 06:41:43;;;;;;;12.02;5.10;;;;;;;27.54;49.35;100126.31;5055197;28;20048;-67
2021/07/25 06:44:28;;;;;;;8.55;4.82;;;;;;;27.55;48.33;100108.34;5053600;28;20410;-67
2021/07/25 06:47:13;;;;;;;6.70;4.82;;;;;;;27.60;48.68;100116.16;5060435;28;20052;-68
2021/07/25 06:49:58;;;;;;;8.68;4.07;;;;;;;27.65;47.73;100108.00;5058596;28;20048;-67
2021/07/25 06:52:43;;;;;;;8.52;5.65;;;;;;;27.70;47.69;100112.25;5055876;28;20055;-67
2021/07/25 06:55:29;;;;;;;8.40;4.95;;;;;;;27.73;47.57;100108.59;5054871;28;20047;-67
2021/07/25 06:58:15;;;;;;;9.95;5.20;;;;;;;27.78;47.86;100096.84;5052105;28;20043;-67
2021/07/25 07:01:00;;;;;;;10.68;5.32;;;;;;;27.82;46.99;100091.91;5054996;28;20056;-67
2021/07/25 07:03:44;;;;;;;8.80;4.90;;;;;;;27.87;46.83;100090.56;5053993;28;20532;-67
2021/07/25 07:06:29;;;;;;;6.43;4.60;;;;;;;27.91;46.99;100092.00;5052805;28;20441;-67
2021/07/25 07:09:14;;;;;;;7.93;4.40;;;;;;;27.96;46.81;100093.47;5054715;28;20093;-67
2021/07/25 07:11:59;;;;;;;7.50;4.45;;;;;;;27.96;45.98;100093.47;5053028;28;20162;-67
2021/07/25 07:14:44;;;;;;;6.65;4.53;;;;;;;27.95;46.42;100084.28;5052604;28;20150;-67
2021/07/25 07:17:29;;;;;;;6.32;4.68;;;;;;;28.02;45.66;100091.66;5054535;28;20051;-67
2021/07/25 07:20:14;;;;;;;7.15;4.88;;;;;;;28.06;45.12;100087.53;5053622;28;20043;-68
2021/07/25 07:23:08;;;;;;;11.13;4.82;;;;;;;28.15;45.17;100094.47;5058761;28;20048;-67
2021/07/25 07:25:54;;;;;;;11.68;4.72;;;;;;;28.14;44.98;100093.66;5055579;28;20525;-67
2021/07/25 07:28:38;;;;;;;6.82;5.00;;;;;;;28.20;44.51;100099.47;5053136;28;20068;-67
2021/07/25 07:31:23;;;;;;;9.07;4.93;;;;;;;28.24;44.46;100102.97;5055832;28;20072;-67
2021/07/25 07:34:08;;;;;;;5.70;4.15;;;;;;;28.25;45.26;100099.69;5049251;28;20060;-67
2021/07/25 07:36:53;;;;;;;7.03;4.32;;;;;;;28.33;43.72;100106.63;5050275;28;20536;-67
2021/07/25 07:39:39;;;;;;;6.32;4.57;;;;;;;28.38;44.32;100105.28;5053443;28;20060;-67
2021/07/25 07:42:24;;;;;;;7.45;4.38;;;;;;;28.39;44.58;100092.84;5052777;28;20449;-67
2021/07/25 07:45:10;;;;;;;9.60;4.57;;;;;;;28.46;43.85;100095.41;5047587;28;20043;-67
2021/07/25 07:47:55;;;;;;;11.48;4.35;;;;;;;28.55;42.65;100086.31;5056536;28;20045;-67
2021/07/25 07:50:42;;;;;;;10.80;4.45;;;;;;;28.61;43.65;100104.06;5055395;28;20036;-67
2021/07/25 07:53:27;;;;;;;6.22;4.40;;;;;;;28.62;44.01;100095.22;5038434;28;20107;-67
2021/07/25 07:56:12;;;;;;;5.80;4.57;;;;;;;28.68;43.02;100098.22;5046765;28;20052;-68
2021/07/25 07:58:57;;;;;;;6.75;4.60;;;;;;;28.71;43.49;100095.28;5055299;28;20044;-67
2021/07/25 08:01:44;;;;;;;8.63;4.85;;;;;;;28.83;42.43;100099.31;5053933;28;20108;-67
2021/07/25 08:04:28;;;;;;;5.60;4.65;;;;;;;28.87;42.47;100097.94;5057811;28;20048;-67
2021/07/25 08:07:14;;;;;;;9.30;4.63;;;;;;;29.00;43.52;100105.50;5052282;28;20056;-70
2021/07/25 08:09:59;;;;;;;12.70;4.35;;;;;;;28.86;42.94;100113.19;5049927;28;20044;-68
2021/07/25 08:12:44;;;;;;;7.22;4.30;;;;;;;28.97;42.30;100109.22;5053734;28;20084;-69
2021/07/25 08:15:29;;;;;;;11.82;4.80;;;;;;;28.91;42.78;100107.00;5053322;28;20044;-69
2021/07/25 08:18:14;;;;;;;18.65;5.57;;;;;;;28.99;42.96;100113.13;5052445;28;20047;-68
2021/07/25 08:20:59;;;;;;;14.95;4.50;;;;;;;29.26;40.99;100112.50;5051647;28;20402;-68
2021/07/25 08:23:44;;;;;;;8.52;4.75;;;;;;;29.25;42.35;100111.75;5055046;28;20051;-69
2021/07/25 08:26:29;;;;;;;14.07;4.60;;;;;;;29.33;41.97;100115.09;5052478;28;20131;-69
2021/07/25 08:29:13;;;;;;;6.93;4.40;;;;;;;29.48;41.95;100132.13;5055099;28;20517;-69
2021/07/25 08:31:59;;;;;;;7.72;4.30;;;;;;;29.46;41.83;100129.78;5053650;28;20513;-69
2021/07/25 08:34:44;;;;;;;11.35;5.13;;;;;;;29.45;40.99;100121.84;5052111;28;20415;-69
2021/07/25 08:37:29;;;;;;;10.23;4.40;;;;;;;29.74;40.99;100128.69;5050263;28;20712;-69
2021/07/25 08:40:15;;;;;;;9.05;5.40;;;;;;;29.69;40.53;100126.47;5053535;28;20056;-69
2021/07/25 08:43:33;;;;;;;8.27;4.93;;;;;;;29.95;39.60;100134.72;5053746;28;20126;-70
2021/07/25 08:46:20;;;;;;;13.55;5.05;;;;;;;29.55;41.07;100126.25;5047982;28;20051;-69
2021/07/25 08:49:16;;;;;;;7.13;4.30;;;;;;;29.72;41.36;100125.56;5052205;28;20048;-69
2021/07/25 08:52:03;;;;;;;26.58;9.27;;;;;;;29.76;41.25;100134.59;5046507;28;20055;-68
2021/07/25 08:54:49;;;;;;;27.20;8.18;;;;;;;29.93;40.44;100132.38;5048285;28;20513;-68
2021/07/25 08:57:37;;;;;;;29.65;8.95;;;;;;;29.96;40.42;100125.06;5053086;28;20047;-68
2021/07/25 09:00:22;;;;;;;23.80;7.03;;;;;;;30.01;40.18;100130.06;5051858;28;20039;-68
2021/07/25 09:03:11;;;;;;;26.83;7.93;;;;;;;30.07;39.86;100128.22;5053670;28;20063;-67
2021/07/25 09:05:59;;;;;;;18.95;6.72;;;;;;;30.04;40.35;100124.31;5049675;28;20052;-67
2021/07/25 09:08:43;;;;;;;14.90;7.07;;;;;;;30.16;39.47;100114.22;5050792;28;20644;-68
2021/07/25 09:11:28;;;;;;;8.68;4.78;;;;;;;30.26;38.11;100118.59;5050765;28;20040;-68
2021/07/25 09:14:14;;;;;;;16.20;6.22;;;;;;;30.27;39.04;100111.75;5051658;28;20064;-68
2021/07/25 09:16:58;;;;;;;12.88;6.65;;;;;;;30.28;39.26;100104.88;5050821;28;20064;-68
2021/07/25 09:20:16;;;;;;;12.05;6.05;;;;;;;30.32;39.19;100111.13;5052506;28;20747;-68
2021/07/25 09:23:15;;;;;;;10.18;5.78;;;;;;;30.34;38.60;100110.66;5049879;28;20060;-67
2021/07/25 09:26:00;;;;;;;7.70;4.95;;;;;;;30.38;38.83;100112.06;5037002;28;20115;-67
2021/07/25 09:28:45;;;;;;;9.10;4.78;;;;;;;30.38;39.31;100098.03;5053901;28;20036;-68
2021/07/25 09:31:30;;;;;;;12.02;5.80;;;;;;;30.41;39.61;100107.56;5051647;28;20420;-67
2021/07/25 09:34:39;;;;;;;14.52;5.00;;;;;;;30.42;39.91;100109.91;5054771;28;20048;-68
2021/07/25 09:37:24;;;;;;;11.13;5.82;;;;;;;30.37;40.38;100102.09;5051725;28;20051;-68
2021/07/25 09:40:12;;;;;;;11.68;5.95;;;;;;;30.36;40.45;100111.75;5056915;28;20044;-67
2021/07/25 09:43:08;;;;;;;11.60;5.40;;;;;;;30.38;39.82;100112.06;5049791;28;20056;-68
2021/07/25 09:45:59;;;;;;;15.30;4.30;;;;;;;30.51;38.35;100118.34;5051970;28;20040;-68
2021/07/25 09:48:55;;;;;;;9.43;4.30;;;;;;;30.66;37.64;100112.13;5052458;28;20055;-68
2021/07/25 09:51:41;;;;;;;6.35;4.15;;;;;;;30.76;37.53;100110.88;5053948;28;20048;-68
2021/07/25 09:54:26;;;;;;;7.95;4.43;;;;;;;30.73;37.93;100101.34;5049373;28;20056;-68
2021/07/25 09:57:11;;;;;;;6.45;4.22;;;;;;;30.76;38.17;100105.25;5053046;28;20052;-67
2021/07/25 10:00:16;;;;;;;10.57;4.50;;;;;;;30.74;38.84;100097.28;5052925;28;20052;-67
2021/07/25 10:03:24;;;;;;;6.22;3.65;;;;;;;30.77;38.28;100107.59;5049481;28;20044;-68
2021/07/25 10:06:22;;;;;;;5.85;3.70;;;;;;;30.91;37.50;100123.03;5048635;28;20048;-68
2021/07/25 10:09:18;;;;;;;8.50;3.55;;;;;;;31.14;35.77;100119.59;5050739;28;20048;-68
2021/07/25 10:12:04;;;;;;;8.57;4.15;;;;;;;31.09;36.84;100128.66;5055006;28;20136;-68
2021/07/25 10:14:48;;;;;;;11.85;4.18;;;;;;;31.21;35.45;100133.31;5052952;28;20048;-67
2021/07/25 10:17:35;;;;;;;12.88;4.43;;;;;;;31.29;35.52;100142.97;5053735;28;20048;-68
2021/07/25 10:20:23;;;;;;;9.25;3.85;;;;;;;31.37;35.45;100155.47;5053592;28;20240;-67
2021/07/25 10:23:09;;;;;;;7.18;3.65;;;;;;;31.33;35.50;100154.88;5052695;28;20048;-67
2021/07/25 10:25:56;;;;;;;6.25;3.30;;;;;;;31.37;35.35;100160.31;5051305;28;20055;-67
2021/07/25 10:28:41;;;;;;;9.02;4.00;;;;;;;31.33;35.95;100154.88;5053431;28;20040;-67
2021/07/25 10:31:27;;;;;;;11.30;4.53;;;;;;;31.46;35.93;100165.91;5052130;28;20036;-67
2021/07/25 10:34:12;;;;;;;6.40;3.25;;;;;;;31.57;35.84;100165.44;5055800;28;20047;-67
2021/07/25 10:37:01;;;;;;;10.63;4.10;;;;;;;31.54;36.32;100172.78;5048881;28;20494;-67
2021/07/25 10:39:51;;;;;;;7.45;4.45;;;;;;;31.64;36.72;100179.19;5052210;28;20048;-67
2021/07/25 10:42:41;;;;;;;8.43;4.10;;;;;;;31.65;36.84;100177.91;5054348;28;20040;-67
2021/07/25 10:45:25;;;;;;;6.78;4.32;;;;;;;31.66;36.77;100171.03;5052692;28;20055;-67
2021/07/25 10:48:16;;;;;;;7.28;4.10;;;;;;;31.83;36.33;100180.69;5052687;28;20044;-67
2021/07/25 10:51:11;;;;;;;12.50;4.93;;;;;;;31.77;36.47;100183.34;5056131;28;20060;-67
2021/07/25 10:54:22;;;;;;;16.20;5.03;;;;;;;31.90;36.99;100179.56;5052092;28;20052;-67
2021/07/25 10:57:10;;;;;;;8.07;4.28;;;;;;;31.88;37.46;100177.22;5050410;28;20116;-67
2021/07/25 10:59:58;;;;;;;12.95;4.30;;;;;;;31.95;36.80;100181.75;5054203;28;20048;-67
2021/07/25 11:02:48;;;;;;;7.93;4.88;;;;;;;32.02;36.28;100175.75;5051785;28;20052;-67
2021/07/25 11:05:33;;;;;;;7.70;4.50;;;;;;;31.98;36.88;100180.78;5050295;28;20040;-67
2021/07/25 11:08:37;;;;;;;6.85;4.38;;;;;;;32.03;36.80;100182.94;5053199;28;20052;-67
2021/07/25 11:11:25;;;;;;;9.68;4.93;;;;;;;32.13;36.97;100187.31;5050930;28;20056;-67
2021/07/25 11:14:09;;;;;;;9.00;4.63;;;;;;;32.12;37.46;100169.63;5053041;28;20051;-67
2021/07/25 11:16:54;;;;;;;11.57;6.03;;;;;;;32.18;37.24;100173.38;5051555;28;20043;-67
2021/07/25 11:19:39;;;;;;;8.93;5.00;;;;;;;32.29;37.31;100175.66;5051692;28;20048;-67
2021/07/25 11:22:44;;;;;;;8.63;4.50;;;;;;;32.31;36.94;100169.53;5055069;28;20056;-67
2021/07/25 11:25:39;;;;;;;8.02;4.35;;;;;;;32.32;37.56;100166.25;5049907;28;20052;-67
2021/07/25 11:28:43;;;;;;;7.78;4.57;;;;;;;32.35;37.48;100158.88;5051118;28;20052;-67
2021/07/25 11:31:53;;;;;;;7.85;5.40;;;;;;;32.36;37.32;100168.88;5057258;28;20390;-67
2021/07/25 11:34:39;;;;;;;7.15;4.38;;;;;;;32.25;37.73;100156.09;5058409;28;20048;-67
2021/07/25 11:37:35;;;;;;;8.25;4.95;;;;;;;32.29;38.07;100155.16;5054848;28;20056;-67
2021/07/25 11:40:24;;;;;;;18.20;5.57;;;;;;;32.30;38.08;100148.28;5040458;28;20398;-67
2021/07/25 11:43:09;;;;;;;9.35;5.00;;;;;;;32.32;38.42;100143.72;5059188;28;20406;-67
2021/07/25 11:45:54;;;;;;;9.50;4.43;;;;;;;32.29;38.75;100136.25;5038406;28;20048;-67
2021/07/25 11:48:38;;;;;;;14.00;4.85;;;;;;;32.39;39.50;100136.97;5052344;28;20048;-67
2021/07/25 11:51:24;;;;;;;7.90;4.65;;;;;;;32.39;39.75;100125.72;5058353;28;20559;-67
2021/07/25 11:54:11;;;;;;;9.30;5.53;;;;;;;32.40;39.82;100116.00;5052278;28;20052;-67
2021/07/25 11:56:57;;;;;;;7.15;4.78;;;;;;;32.45;39.00;100101.28;5053605;28;20048;-67
2021/07/25 11:59:53;;;;;;;7.53;4.32;;;;;;;32.44;38.74;100105.34;5055064;28;20040;-67
2021/07/25 12:02:39;;;;;;;8.45;4.78;;;;;;;32.44;38.43;100108.16;5055122;28;20406;-67
2021/07/25 12:05:26;;;;;;;13.55;4.82;;;;;;;32.40;38.20;100104.75;5054069;28;20047;-67
2021/07/25 12:08:11;;;;;;;10.20;4.82;;;;;;;32.43;37.74;100092.50;5058456;28;20044;-67
2021/07/25 12:11:03;;;;;;;9.82;4.93;;;;;;;32.40;38.00;100097.09;5051934;28;20355;-67
2021/07/25 12:13:49;;;;;;;6.30;4.50;;;;;;;32.34;38.32;100107.44;5052308;28;20048;-67
2021/07/25 12:16:50;;;;;;;10.25;4.78;;;;;;;32.38;37.93;100112.88;5051227;28;20048;-67
2021/07/25 12:19:38;;;;;;;10.52;4.70;;;;;;;32.37;38.01;100122.59;5040456;28;20036;-67
2021/07/25 12:22:23;;;;;;;11.77;4.97;;;;;;;32.35;38.19;100120.25;5053279;28;20044;-67
2021/07/25 12:25:08;;;;;;;8.38;4.20;;;;;;;32.33;38.17;100122.00;5056282;28;20048;-67
2021/07/25 12:28:04;;;;;;;15.43;6.32;;;;;;;32.27;38.39;100119.06;5053431;28;20044;-67
2021/07/25 12:30:53;;;;;;;15.18;4.93;;;;;;;32.28;38.82;100114.19;5053024;28;20040;-67
2021/07/25 12:33:38;;;;;;;10.32;4.63;;;;;;;32.35;38.07;100128.72;5057071;28;20068;-68
2021/07/25 12:36:32;;;;;;;7.38;5.45;;;;;;;32.33;38.52;100133.25;5050013;28;20048;-67
2021/07/25 12:39:19;;;;;;;8.52;4.60;;;;;;;32.28;38.37;100136.72;5058392;28;20043;-67
2021/07/25 12:42:05;;;;;;;7.47;4.53;;;;;;;32.29;38.51;100135.47;5055914;28;20047;-67
2021/07/25 12:44:50;;;;;;;9.23;4.32;;;;;;;32.32;38.54;100126.06;5051772;28;20052;-67
2021/07/25 12:47:35;;;;;;;9.52;4.45;;;;;;;32.28;38.38;100122.66;5057906;28;20052;-67
2021/07/25 12:50:20;;;;;;;5.97;4.50;;;;;;;32.25;38.56;100107.50;5054793;28;20078;-67
2021/07/25 12:53:16;;;;;;;9.48;4.82;;;;;;;32.29;38.31;100107.31;5055248;28;20044;-67
2021/07/25 12:56:05;;;;;;;12.75;5.00;;;;;;;32.28;38.72;100114.19;5055019;28;20065;-67